sensor_id;sensor_type;location;lat;lon;timestamp;P1;durP1;ratioP1;P2;durP2;ratioP2
9838;SDS011;4958;48.150;11.506;2023-12-20T00:02:06;4.27;;;2.47;;
9838;SDS011;4958;48.150;11.506;2023-12-20T00:04:33;3.37;;;2.30;;
9838;SDS011;4958;48.150;11.506;2023-12-20T00:07:03;2.83;;;2.40;;
9838;SDS011;4958;48.150;11.506;2023-12-20T00:09:30;2.60;;;2.40;;
9838;SDS011;4958;48.150;11.506;2023-12-20T00:11:58;2.80;;;1.90;;
9838;SDS011;4958;48.150;11.506;2023-12-20T00:14:24;2.57;;;2.37;;
9838;SDS011;4958;48.150;11.506;2023-12-20T00:16:51;3.00;;;2.20;;
9838;SDS011;4958;48.150;11.506;2023-12-20T00:19:17;2.00;;;1.90;;
9838;SDS011;4958;48.150;11.506;2023-12-20T00:21:43;2.30;;;2.10;;
9838;SDS011;4958;48.150;11.506;2023-12-20T00:24:10;2.30;;;2.00;;
9838;SDS011;4958;48.150;11.506;2023-12-20T00:26:41;2.40;;;1.90;;
9838;SDS011;4958;48.150;11.506;2023-12-20T00:29:14;1.97;;;1.87;;
9838;SDS011;4958;48.150;11.506;2023-12-20T00:31:41;2.30;;;2.10;;
9838;SDS011;4958;48.150;11.506;2023-12-20T00:34:07;2.27;;;2.07;;
9838;SDS011;4958;48.150;11.506;2023-12-20T00:36:34;2.20;;;2.00;;
9838;SDS011;4958;48.150;11.506;2023-12-20T00:39:00;2.13;;;1.93;;
9838;SDS011;4958;48.150;11.506;2023-12-20T00:41:27;1.97;;;1.80;;
9838;SDS011;4958;48.150;11.506;2023-12-20T00:43:54;1.90;;;1.60;;
9838;SDS011;4958;48.150;11.506;2023-12-20T00:46:20;2.67;;;2.10;;
9838;SDS011;4958;48.150;11.506;2023-12-20T00:48:47;2.03;;;1.67;;
9838;SDS011;4958;48.150;11.506;2023-12-20T00:51:15;1.80;;;1.70;;
9838;SDS011;4958;48.150;11.506;2023-12-20T00:53:41;2.43;;;1.70;;
9838;SDS011;4958;48.150;11.506;2023-12-20T00:56:08;2.97;;;1.80;;
9838;SDS011;4958;48.150;11.506;2023-12-20T00:58:34;1.80;;;1.70;;
9838;SDS011;4958;48.150;11.506;2023-12-20T01:01:01;1.97;;;1.80;;
9838;SDS011;4958;48.150;11.506;2023-12-20T01:03:29;2.00;;;1.80;;
9838;SDS011;4958;48.150;11.506;2023-12-20T01:05:55;2.43;;;1.90;;
9838;SDS011;4958;48.150;11.506;2023-12-20T01:08:22;1.83;;;1.70;;
9838;SDS011;4958;48.150;11.506;2023-12-20T01:10:49;2.00;;;1.80;;
9838;SDS011;4958;48.150;11.506;2023-12-20T01:13:15;1.70;;;1.60;;
9838;SDS011;4958;48.150;11.506;2023-12-20T01:15:41;1.70;;;1.60;;
9838;SDS011;4958;48.150;11.506;2023-12-20T01:18:14;2.57;;;1.40;;
9838;SDS011;4958;48.150;11.506;2023-12-20T01:20:42;1.77;;;1.57;;
9838;SDS011;4958;48.150;11.506;2023-12-20T01:23:08;1.63;;;1.40;;
9838;SDS011;4958;48.150;11.506;2023-12-20T01:25:35;3.73;;;1.80;;
9838;SDS011;4958;48.150;11.506;2023-12-20T01:28:01;1.60;;;1.50;;
9838;SDS011;4958;48.150;11.506;2023-12-20T01:30:28;1.43;;;1.30;;
9838;SDS011;4958;48.150;11.506;2023-12-20T01:32:54;2.00;;;1.53;;
9838;SDS011;4958;48.150;11.506;2023-12-20T01:35:21;1.50;;;1.40;;
9838;SDS011;4958;48.150;11.506;2023-12-20T01:37:48;1.63;;;1.53;;
9838;SDS011;4958;48.150;11.506;2023-12-20T01:40:15;1.60;;;1.27;;
9838;SDS011;4958;48.150;11.506;2023-12-20T01:42:44;1.50;;;1.40;;
9838;SDS011;4958;48.150;11.506;2023-12-20T01:45:11;1.50;;;1.40;;
9838;SDS011;4958;48.150;11.506;2023-12-20T01:47:38;1.50;;;1.40;;
9838;SDS011;4958;48.150;11.506;2023-12-20T01:50:05;1.23;;;1.13;;
9838;SDS011;4958;48.150;11.506;2023-12-20T01:52:33;1.40;;;1.30;;
9838;SDS011;4958;48.150;11.506;2023-12-20T01:55:02;1.40;;;1.30;;
9838;SDS011;4958;48.150;11.506;2023-12-20T01:57:31;1.33;;;1.23;;
9838;SDS011;4958;48.150;11.506;2023-12-20T02:00:07;2.30;;;1.23;;
9838;SDS011;4958;48.150;11.506;2023-12-20T02:02:35;1.30;;;1.20;;
9838;SDS011;4958;48.150;11.506;2023-12-20T02:05:05;1.47;;;1.37;;
9838;SDS011;4958;48.150;11.506;2023-12-20T02:07:32;1.40;;;1.20;;
9838;SDS011;4958;48.150;11.506;2023-12-20T02:09:59;1.40;;;1.30;;
9838;SDS011;4958;48.150;11.506;2023-12-20T02:12:28;1.77;;;1.40;;
9838;SDS011;4958;48.150;11.506;2023-12-20T02:15:00;1.03;;;0.93;;
9838;SDS011;4958;48.150;11.506;2023-12-20T02:17:27;1.20;;;1.10;;
9838;SDS011;4958;48.150;11.506;2023-12-20T02:19:54;1.30;;;1.20;;
9838;SDS011;4958;48.150;11.506;2023-12-20T02:22:21;1.20;;;1.10;;
9838;SDS011;4958;48.150;11.506;2023-12-20T02:24:48;1.30;;;1.20;;
9838;SDS011;4958;48.150;11.506;2023-12-20T02:27:14;1.00;;;1.00;;
9838;SDS011;4958;48.150;11.506;2023-12-20T02:29:43;1.20;;;1.10;;
9838;SDS011;4958;48.150;11.506;2023-12-20T02:32:11;0.90;;;0.90;;
9838;SDS011;4958;48.150;11.506;2023-12-20T02:34:37;0.97;;;0.90;;
9838;SDS011;4958;48.150;11.506;2023-12-20T02:37:04;1.27;;;0.90;;
9838;SDS011;4958;48.150;11.506;2023-12-20T02:39:34;1.00;;;0.90;;
9838;SDS011;4958;48.150;11.506;2023-12-20T02:42:00;0.80;;;0.80;;
9838;SDS011;4958;48.150;11.506;2023-12-20T02:44:27;1.30;;;0.90;;
9838;SDS011;4958;48.150;11.506;2023-12-20T02:46:53;0.80;;;0.80;;
9838;SDS011;4958;48.150;11.506;2023-12-20T02:49:20;1.00;;;0.87;;
9838;SDS011;4958;48.150;11.506;2023-12-20T02:51:46;0.97;;;0.93;;
9838;SDS011;4958;48.150;11.506;2023-12-20T02:54:13;0.80;;;0.80;;
9838;SDS011;4958;48.150;11.506;2023-12-20T02:56:40;0.60;;;0.60;;
9838;SDS011;4958;48.150;11.506;2023-12-20T02:59:07;0.80;;;0.80;;
9838;SDS011;4958;48.150;11.506;2023-12-20T03:01:34;0.63;;;0.63;;
9838;SDS011;4958;48.150;11.506;2023-12-20T03:04:01;1.20;;;0.70;;
9838;SDS011;4958;48.150;11.506;2023-12-20T03:06:27;0.80;;;0.80;;
9838;SDS011;4958;48.150;11.506;2023-12-20T03:08:54;0.70;;;0.70;;
9838;SDS011;4958;48.150;11.506;2023-12-20T03:11:20;1.00;;;0.90;;
9838;SDS011;4958;48.150;11.506;2023-12-20T03:13:48;0.80;;;0.80;;
9838;SDS011;4958;48.150;11.506;2023-12-20T03:16:17;1.73;;;0.80;;
9838;SDS011;4958;48.150;11.506;2023-12-20T03:18:44;1.53;;;1.00;;
9838;SDS011;4958;48.150;11.506;2023-12-20T03:21:10;0.83;;;0.83;;
9838;SDS011;4958;48.150;11.506;2023-12-20T03:23:37;0.80;;;0.70;;
9838;SDS011;4958;48.150;11.506;2023-12-20T03:26:03;0.80;;;0.80;;
9838;SDS011;4958;48.150;11.506;2023-12-20T03:28:33;1.10;;;1.00;;
9838;SDS011;4958;48.150;11.506;2023-12-20T03:31:04;0.90;;;0.80;;
9838;SDS011;4958;48.150;11.506;2023-12-20T03:33:30;0.80;;;0.80;;
9838;SDS011;4958;48.150;11.506;2023-12-20T03:35:57;0.80;;;0.80;;
9838;SDS011;4958;48.150;11.506;2023-12-20T03:38:23;0.70;;;0.70;;
9838;SDS011;4958;48.150;11.506;2023-12-20T03:40:50;0.87;;;0.87;;
9838;SDS011;4958;48.150;11.506;2023-12-20T03:43:16;1.10;;;1.00;;
9838;SDS011;4958;48.150;11.506;2023-12-20T03:45:49;1.77;;;0.80;;
9838;SDS011;4958;48.150;11.506;2023-12-20T03:48:17;0.60;;;0.60;;
9838;SDS011;4958;48.150;11.506;2023-12-20T03:50:43;0.70;;;0.70;;
9838;SDS011;4958;48.150;11.506;2023-12-20T03:53:10;0.97;;;0.97;;
9838;SDS011;4958;48.150;11.506;2023-12-20T03:55:36;0.97;;;0.93;;
9838;SDS011;4958;48.150;11.506;2023-12-20T03:58:03;0.80;;;0.80;;
9838;SDS011;4958;48.150;11.506;2023-12-20T04:00:35;1.37;;;1.00;;
9838;SDS011;4958;48.150;11.506;2023-12-20T04:03:05;2.47;;;0.90;;
9838;SDS011;4958;48.150;11.506;2023-12-20T04:05:33;0.90;;;0.83;;
9838;SDS011;4958;48.150;11.506;2023-12-20T04:08:00;1.50;;;0.87;;
9838;SDS011;4958;48.150;11.506;2023-12-20T04:10:28;0.90;;;0.90;;
9838;SDS011;4958;48.150;11.506;2023-12-20T04:13:03;1.70;;;1.10;;
9838;SDS011;4958;48.150;11.506;2023-12-20T04:15:30;1.00;;;0.90;;
9838;SDS011;4958;48.150;11.506;2023-12-20T04:17:56;1.13;;;1.00;;
9838;SDS011;4958;48.150;11.506;2023-12-20T04:20:23;0.80;;;0.80;;
9838;SDS011;4958;48.150;11.506;2023-12-20T04:22:51;1.53;;;1.20;;
9838;SDS011;4958;48.150;11.506;2023-12-20T04:25:23;1.73;;;1.00;;
9838;SDS011;4958;48.150;11.506;2023-12-20T04:27:50;1.30;;;1.10;;
9838;SDS011;4958;48.150;11.506;2023-12-20T04:30:16;1.00;;;1.00;;
9838;SDS011;4958;48.150;11.506;2023-12-20T04:32:43;1.20;;;1.10;;
9838;SDS011;4958;48.150;11.506;2023-12-20T04:35:09;1.30;;;1.20;;
9838;SDS011;4958;48.150;11.506;2023-12-20T04:37:36;1.33;;;1.23;;
9838;SDS011;4958;48.150;11.506;2023-12-20T04:40:12;1.20;;;1.10;;
9838;SDS011;4958;48.150;11.506;2023-12-20T04:42:39;1.20;;;1.10;;
9838;SDS011;4958;48.150;11.506;2023-12-20T04:45:06;1.00;;;1.00;;
9838;SDS011;4958;48.150;11.506;2023-12-20T04:47:32;1.20;;;1.10;;
9838;SDS011;4958;48.150;11.506;2023-12-20T04:49:59;1.97;;;1.27;;
9838;SDS011;4958;48.150;11.506;2023-12-20T04:52:34;1.43;;;1.30;;
9838;SDS011;4958;48.150;11.506;2023-12-20T04:55:00;1.57;;;1.47;;
9838;SDS011;4958;48.150;11.506;2023-12-20T04:57:28;2.23;;;1.20;;
9838;SDS011;4958;48.150;11.506;2023-12-20T04:59:54;3.10;;;1.53;;
9838;SDS011;4958;48.150;11.506;2023-12-20T05:02:21;1.80;;;1.70;;
9838;SDS011;4958;48.150;11.506;2023-12-20T05:04:47;1.80;;;1.70;;
9838;SDS011;4958;48.150;11.506;2023-12-20T05:07:23;1.83;;;1.73;;
9838;SDS011;4958;48.150;11.506;2023-12-20T05:09:50;2.10;;;1.90;;
9838;SDS011;4958;48.150;11.506;2023-12-20T05:12:16;2.10;;;1.90;;
9838;SDS011;4958;48.150;11.506;2023-12-20T05:14:47;2.20;;;2.00;;
9838;SDS011;4958;48.150;11.506;2023-12-20T05:17:22;2.00;;;1.80;;
9838;SDS011;4958;48.150;11.506;2023-12-20T05:19:49;2.40;;;1.90;;
9838;SDS011;4958;48.150;11.506;2023-12-20T05:22:15;2.20;;;2.00;;
9838;SDS011;4958;48.150;11.506;2023-12-20T05:24:42;1.80;;;1.70;;
9838;SDS011;4958;48.150;11.506;2023-12-20T05:27:09;2.40;;;2.20;;
9838;SDS011;4958;48.150;11.506;2023-12-20T05:29:36;2.10;;;1.90;;
9838;SDS011;4958;48.150;11.506;2023-12-20T05:32:10;2.50;;;2.07;;
9838;SDS011;4958;48.150;11.506;2023-12-20T05:34:36;2.00;;;1.80;;
9838;SDS011;4958;48.150;11.506;2023-12-20T05:37:03;2.20;;;2.00;;
9838;SDS011;4958;48.150;11.506;2023-12-20T05:39:30;2.10;;;1.90;;
9838;SDS011;4958;48.150;11.506;2023-12-20T05:41:56;2.00;;;1.80;;
9838;SDS011;4958;48.150;11.506;2023-12-20T05:44:23;2.07;;;1.90;;
9838;SDS011;4958;48.150;11.506;2023-12-20T05:46:49;2.00;;;1.80;;
9838;SDS011;4958;48.150;11.506;2023-12-20T05:49:17;4.17;;;1.83;;
9838;SDS011;4958;48.150;11.506;2023-12-20T05:51:43;1.60;;;1.50;;
9838;SDS011;4958;48.150;11.506;2023-12-20T05:54:10;1.63;;;1.53;;
9838;SDS011;4958;48.150;11.506;2023-12-20T05:56:36;2.10;;;1.70;;
9838;SDS011;4958;48.150;11.506;2023-12-20T05:59:03;1.53;;;1.43;;
9838;SDS011;4958;48.150;11.506;2023-12-20T06:01:29;1.70;;;1.60;;
9838;SDS011;4958;48.150;11.506;2023-12-20T06:03:56;2.63;;;1.70;;
9838;SDS011;4958;48.150;11.506;2023-12-20T06:06:24;2.40;;;1.60;;
9838;SDS011;4958;48.150;11.506;2023-12-20T06:08:51;2.10;;;1.90;;
9838;SDS011;4958;48.150;11.506;2023-12-20T06:11:17;2.07;;;1.87;;
9838;SDS011;4958;48.150;11.506;2023-12-20T06:13:44;1.77;;;1.67;;
9838;SDS011;4958;48.150;11.506;2023-12-20T06:16:16;1.90;;;1.80;;
9838;SDS011;4958;48.150;11.506;2023-12-20T06:18:47;2.20;;;2.00;;
9838;SDS011;4958;48.150;11.506;2023-12-20T06:21:13;1.80;;;1.70;;
9838;SDS011;4958;48.150;11.506;2023-12-20T06:23:41;1.90;;;1.70;;
9838;SDS011;4958;48.150;11.506;2023-12-20T06:26:08;2.20;;;1.90;;
9838;SDS011;4958;48.150;11.506;2023-12-20T06:28:34;1.83;;;1.73;;
9838;SDS011;4958;48.150;11.506;2023-12-20T06:31:01;2.63;;;1.70;;
9838;SDS011;4958;48.150;11.506;2023-12-20T06:33:30;1.70;;;1.60;;
9838;SDS011;4958;48.150;11.506;2023-12-20T06:36:00;2.60;;;1.80;;
9838;SDS011;4958;48.150;11.506;2023-12-20T06:38:27;1.83;;;1.70;;
9838;SDS011;4958;48.150;11.506;2023-12-20T06:40:54;1.50;;;1.40;;
9838;SDS011;4958;48.150;11.506;2023-12-20T06:43:22;2.07;;;1.90;;
9838;SDS011;4958;48.150;11.506;2023-12-20T06:46:01;1.87;;;1.70;;
9838;SDS011;4958;48.150;11.506;2023-12-20T06:48:27;1.80;;;1.70;;
9838;SDS011;4958;48.150;11.506;2023-12-20T06:50:54;1.90;;;1.67;;
9838;SDS011;4958;48.150;11.506;2023-12-20T06:53:20;1.77;;;1.60;;
9838;SDS011;4958;48.150;11.506;2023-12-20T06:55:47;3.43;;;1.90;;
9838;SDS011;4958;48.150;11.506;2023-12-20T06:58:14;5.70;;;3.63;;
9838;SDS011;4958;48.150;11.506;2023-12-20T07:00:41;1.80;;;1.60;;
9838;SDS011;4958;48.150;11.506;2023-12-20T07:03:08;1.50;;;1.40;;
9838;SDS011;4958;48.150;11.506;2023-12-20T07:05:38;1.40;;;1.30;;
9838;SDS011;4958;48.150;11.506;2023-12-20T07:08:13;1.50;;;1.40;;
9838;SDS011;4958;48.150;11.506;2023-12-20T07:10:40;1.60;;;1.40;;
9838;SDS011;4958;48.150;11.506;2023-12-20T07:13:07;1.87;;;1.50;;
9838;SDS011;4958;48.150;11.506;2023-12-20T07:15:47;2.37;;;1.40;;
9838;SDS011;4958;48.150;11.506;2023-12-20T07:18:13;1.30;;;1.20;;
9838;SDS011;4958;48.150;11.506;2023-12-20T07:20:40;1.40;;;1.30;;
9838;SDS011;4958;48.150;11.506;2023-12-20T07:23:06;1.67;;;1.10;;
9838;SDS011;4958;48.150;11.506;2023-12-20T07:25:33;2.57;;;1.20;;
9838;SDS011;4958;48.150;11.506;2023-12-20T07:28:09;1.80;;;1.30;;
9838;SDS011;4958;48.150;11.506;2023-12-20T07:30:37;1.40;;;1.30;;
9838;SDS011;4958;48.150;11.506;2023-12-20T07:33:05;3.53;;;1.33;;
9838;SDS011;4958;48.150;11.506;2023-12-20T07:35:33;1.60;;;1.20;;
9838;SDS011;4958;48.150;11.506;2023-12-20T07:38:24;1.80;;;1.30;;
9838;SDS011;4958;48.150;11.506;2023-12-20T07:40:50;1.43;;;1.00;;
9838;SDS011;4958;48.150;11.506;2023-12-20T07:46:27;1.80;;;1.40;;
9838;SDS011;4958;48.150;11.506;2023-12-20T07:48:55;1.13;;;1.03;;
9838;SDS011;4958;48.150;11.506;2023-12-20T07:51:24;1.00;;;0.90;;
9838;SDS011;4958;48.150;11.506;2023-12-20T07:53:51;1.33;;;1.10;;
9838;SDS011;4958;48.150;11.506;2023-12-20T07:56:18;4.13;;;3.30;;
9838;SDS011;4958;48.150;11.506;2023-12-20T07:58:54;1.20;;;1.10;;
9838;SDS011;4958;48.150;11.506;2023-12-20T08:01:21;0.93;;;0.87;;
9838;SDS011;4958;48.150;11.506;2023-12-20T08:03:48;1.17;;;1.00;;
9838;SDS011;4958;48.150;11.506;2023-12-20T08:06:16;0.90;;;0.90;;
9838;SDS011;4958;48.150;11.506;2023-12-20T08:08:43;0.80;;;0.80;;
9838;SDS011;4958;48.150;11.506;2023-12-20T09:08:06;0.83;;;0.83;;
9838;SDS011;4958;48.150;11.506;2023-12-20T09:10:35;0.83;;;0.83;;
9838;SDS011;4958;48.150;11.506;2023-12-20T09:13:01;0.77;;;0.77;;
9838;SDS011;4958;48.150;11.506;2023-12-20T09:15:43;0.80;;;0.70;;
9838;SDS011;4958;48.150;11.506;2023-12-20T09:18:10;1.17;;;0.80;;
9838;SDS011;4958;48.150;11.506;2023-12-20T09:20:36;0.90;;;0.90;;
9838;SDS011;4958;48.150;11.506;2023-12-20T09:23:06;2.10;;;0.90;;
9838;SDS011;4958;48.150;11.506;2023-12-20T09:25:33;0.90;;;0.90;;
9838;SDS011;4958;48.150;11.506;2023-12-20T09:28:04;0.80;;;0.80;;
9838;SDS011;4958;48.150;11.506;2023-12-20T09:30:35;1.43;;;0.90;;
9838;SDS011;4958;48.150;11.506;2023-12-20T09:33:15;1.30;;;0.90;;
9838;SDS011;4958;48.150;11.506;2023-12-20T09:35:52;0.80;;;0.80;;
9838;SDS011;4958;48.150;11.506;2023-12-20T09:44:31;0.83;;;0.83;;
9838;SDS011;4958;48.150;11.506;2023-12-20T09:47:02;1.10;;;0.90;;
9838;SDS011;4958;48.150;11.506;2023-12-20T09:49:38;0.90;;;0.90;;
9838;SDS011;4958;48.150;11.506;2023-12-20T09:52:28;1.03;;;1.00;;
9838;SDS011;4958;48.150;11.506;2023-12-20T09:54:57;1.10;;;0.90;;
9838;SDS011;4958;48.150;11.506;2023-12-20T10:00:47;1.30;;;1.20;;
9838;SDS011;4958;48.150;11.506;2023-12-20T10:03:21;1.30;;;1.20;;
9838;SDS011;4958;48.150;11.506;2023-12-20T10:06:03;1.07;;;0.97;;
9838;SDS011;4958;48.150;11.506;2023-12-20T10:08:36;0.90;;;0.90;;
9838;SDS011;4958;48.150;11.506;2023-12-20T10:11:14;1.00;;;1.00;;
9838;SDS011;4958;48.150;11.506;2023-12-20T10:13:49;1.20;;;1.10;;
9838;SDS011;4958;48.150;11.506;2023-12-20T10:16:25;1.20;;;1.10;;
9838;SDS011;4958;48.150;11.506;2023-12-20T10:19:07;1.33;;;1.10;;
9838;SDS011;4958;48.150;11.506;2023-12-20T10:21:41;1.27;;;1.07;;
9838;SDS011;4958;48.150;11.506;2023-12-20T10:24:17;1.10;;;1.00;;
9838;SDS011;4958;48.150;11.506;2023-12-20T10:45:35;1.60;;;1.50;;
9838;SDS011;4958;48.150;11.506;2023-12-20T10:48:05;0.93;;;0.90;;
9838;SDS011;4958;48.150;11.506;2023-12-20T10:50:36;1.13;;;1.07;;
9838;SDS011;4958;48.150;11.506;2023-12-20T10:53:11;1.87;;;1.10;;
9838;SDS011;4958;48.150;11.506;2023-12-20T10:55:51;1.00;;;1.00;;
9838;SDS011;4958;48.150;11.506;2023-12-20T11:01:10;1.23;;;1.00;;
9838;SDS011;4958;48.150;11.506;2023-12-20T11:07:05;1.17;;;1.00;;
9838;SDS011;4958;48.150;11.506;2023-12-20T11:10:03;1.30;;;1.20;;
9838;SDS011;4958;48.150;11.506;2023-12-20T11:12:44;1.20;;;1.10;;
9838;SDS011;4958;48.150;11.506;2023-12-20T11:15:14;1.23;;;1.17;;
9838;SDS011;4958;48.150;11.506;2023-12-20T11:17:55;1.33;;;1.23;;
9838;SDS011;4958;48.150;11.506;2023-12-20T11:20:34;1.43;;;1.30;;
9838;SDS011;4958;48.150;11.506;2023-12-20T11:23:07;1.53;;;1.43;;
9838;SDS011;4958;48.150;11.506;2023-12-20T11:25:46;3.60;;;2.83;;
9838;SDS011;4958;48.150;11.506;2023-12-20T11:28:37;4.70;;;2.87;;
9838;SDS011;4958;48.150;11.506;2023-12-20T11:31:04;2.00;;;1.40;;
9838;SDS011;4958;48.150;11.506;2023-12-20T11:33:41;1.63;;;1.53;;
9838;SDS011;4958;48.150;11.506;2023-12-20T11:39:02;1.50;;;1.40;;
9838;SDS011;4958;48.150;11.506;2023-12-20T11:41:33;1.80;;;1.60;;
9838;SDS011;4958;48.150;11.506;2023-12-20T11:44:00;1.70;;;1.60;;
9838;SDS011;4958;48.150;11.506;2023-12-20T11:46:27;1.40;;;1.30;;
9838;SDS011;4958;48.150;11.506;2023-12-20T11:51:42;1.63;;;1.53;;
9838;SDS011;4958;48.150;11.506;2023-12-20T11:54:13;2.23;;;1.70;;
9838;SDS011;4958;48.150;11.506;2023-12-20T11:56:49;2.93;;;1.80;;
9838;SDS011;4958;48.150;11.506;2023-12-20T11:59:15;1.47;;;1.37;;
9838;SDS011;4958;48.150;11.506;2023-12-20T12:01:48;1.57;;;1.20;;
9838;SDS011;4958;48.150;11.506;2023-12-20T12:04:20;1.43;;;1.33;;
9838;SDS011;4958;48.150;11.506;2023-12-20T12:06:58;1.43;;;1.30;;
9838;SDS011;4958;48.150;11.506;2023-12-20T12:09:24;1.23;;;1.13;;
9838;SDS011;4958;48.150;11.506;2023-12-20T12:11:50;1.30;;;1.20;;
9838;SDS011;4958;48.150;11.506;2023-12-20T12:14:17;1.30;;;1.20;;
9838;SDS011;4958;48.150;11.506;2023-12-20T12:37:23;1.30;;;1.20;;
9838;SDS011;4958;48.150;11.506;2023-12-20T12:39:53;1.10;;;1.10;;
9838;SDS011;4958;48.150;11.506;2023-12-20T12:42:28;1.83;;;1.30;;
9838;SDS011;4958;48.150;11.506;2023-12-20T12:50:24;1.80;;;1.70;;
9838;SDS011;4958;48.150;11.506;2023-12-20T12:53:00;1.37;;;1.27;;
9838;SDS011;4958;48.150;11.506;2023-12-20T12:55:45;2.33;;;1.50;;
9838;SDS011;4958;48.150;11.506;2023-12-20T12:58:28;1.40;;;1.30;;
9838;SDS011;4958;48.150;11.506;2023-12-20T13:03:50;1.50;;;1.40;;
9838;SDS011;4958;48.150;11.506;2023-12-20T13:06:20;1.70;;;1.60;;
9838;SDS011;4958;48.150;11.506;2023-12-20T13:08:51;1.70;;;1.60;;
9838;SDS011;4958;48.150;11.506;2023-12-20T13:11:19;1.57;;;1.47;;
9838;SDS011;4958;48.150;11.506;2023-12-20T13:13:47;2.07;;;1.40;;
9838;SDS011;4958;48.150;11.506;2023-12-20T13:16:14;1.40;;;1.30;;
9838;SDS011;4958;48.150;11.506;2023-12-20T13:18:49;4.40;;;3.03;;
9838;SDS011;4958;48.150;11.506;2023-12-20T13:21:18;3.67;;;3.10;;
9838;SDS011;4958;48.150;11.506;2023-12-20T13:23:44;1.93;;;1.67;;
9838;SDS011;4958;48.150;11.506;2023-12-20T13:29:00;1.57;;;1.27;;
9838;SDS011;4958;48.150;11.506;2023-12-20T13:31:26;1.87;;;1.47;;
9838;SDS011;4958;48.150;11.506;2023-12-20T13:34:10;2.10;;;1.63;;
9838;SDS011;4958;48.150;11.506;2023-12-20T13:36:40;2.13;;;1.30;;
9838;SDS011;4958;48.150;11.506;2023-12-20T13:39:12;1.60;;;1.50;;
9838;SDS011;4958;48.150;11.506;2023-12-20T13:44:28;4.10;;;1.60;;
9838;SDS011;4958;48.150;11.506;2023-12-20T13:46:55;4.53;;;3.77;;
9838;SDS011;4958;48.150;11.506;2023-12-20T13:49:29;3.60;;;2.60;;
9838;SDS011;4958;48.150;11.506;2023-12-20T13:51:56;2.83;;;1.60;;
9838;SDS011;4958;48.150;11.506;2023-12-20T13:54:23;2.73;;;1.63;;
9838;SDS011;4958;48.150;11.506;2023-12-20T13:56:50;1.90;;;1.70;;
9838;SDS011;4958;48.150;11.506;2023-12-20T13:59:18;1.83;;;1.50;;
9838;SDS011;4958;48.150;11.506;2023-12-20T14:01:55;1.70;;;1.60;;
9838;SDS011;4958;48.150;11.506;2023-12-20T14:04:23;2.60;;;1.40;;
9838;SDS011;4958;48.150;11.506;2023-12-20T14:06:49;2.13;;;1.60;;
9838;SDS011;4958;48.150;11.506;2023-12-20T14:09:15;2.73;;;1.60;;
9838;SDS011;4958;48.150;11.506;2023-12-20T14:11:42;2.70;;;1.73;;
9838;SDS011;4958;48.150;11.506;2023-12-20T14:14:19;2.70;;;1.70;;
9838;SDS011;4958;48.150;11.506;2023-12-20T14:16:45;3.30;;;1.73;;
9838;SDS011;4958;48.150;11.506;2023-12-20T14:19:12;2.00;;;1.60;;
9838;SDS011;4958;48.150;11.506;2023-12-20T14:21:38;2.03;;;1.57;;
9838;SDS011;4958;48.150;11.506;2023-12-20T14:24:05;2.07;;;1.50;;
9838;SDS011;4958;48.150;11.506;2023-12-20T14:26:32;1.83;;;1.60;;
9838;SDS011;4958;48.150;11.506;2023-12-20T14:29:08;2.03;;;1.43;;
9838;SDS011;4958;48.150;11.506;2023-12-20T14:31:35;2.00;;;1.60;;
9838;SDS011;4958;48.150;11.506;2023-12-20T14:34:03;4.17;;;1.73;;
9838;SDS011;4958;48.150;11.506;2023-12-20T14:36:30;2.23;;;1.50;;
9838;SDS011;4958;48.150;11.506;2023-12-20T14:41:34;4.93;;;1.80;;
9838;SDS011;4958;48.150;11.506;2023-12-20T14:44:00;3.93;;;1.70;;
9838;SDS011;4958;48.150;11.506;2023-12-20T14:49:42;3.23;;;1.90;;
9838;SDS011;4958;48.150;11.506;2023-12-20T14:52:10;2.13;;;1.90;;
9838;SDS011;4958;48.150;11.506;2023-12-20T14:54:37;6.60;;;1.93;;
9838;SDS011;4958;48.150;11.506;2023-12-20T14:57:04;2.77;;;1.60;;
9838;SDS011;4958;48.150;11.506;2023-12-20T14:59:30;4.67;;;1.93;;
9838;SDS011;4958;48.150;11.506;2023-12-20T15:05:36;2.23;;;1.67;;
9838;SDS011;4958;48.150;11.506;2023-12-20T15:11:50;2.97;;;1.70;;
9838;SDS011;4958;48.150;11.506;2023-12-20T15:14:26;2.20;;;2.00;;
9838;SDS011;4958;48.150;11.506;2023-12-20T15:17:29;1.57;;;1.37;;
9838;SDS011;4958;48.150;11.506;2023-12-20T15:19:55;2.53;;;1.50;;
9838;SDS011;4958;48.150;11.506;2023-12-20T15:22:38;1.30;;;1.20;;
9838;SDS011;4958;48.150;11.506;2023-12-20T15:25:09;2.50;;;1.40;;
9838;SDS011;4958;48.150;11.506;2023-12-20T15:27:37;1.90;;;1.60;;
9838;SDS011;4958;48.150;11.506;2023-12-20T15:30:04;3.27;;;1.33;;
9838;SDS011;4958;48.150;11.506;2023-12-20T15:32:32;1.73;;;1.50;;
9838;SDS011;4958;48.150;11.506;2023-12-20T15:34:59;3.03;;;2.00;;
9838;SDS011;4958;48.150;11.506;2023-12-20T15:37:41;2.07;;;1.47;;
9838;SDS011;4958;48.150;11.506;2023-12-20T15:40:08;1.60;;;1.20;;
9838;SDS011;4958;48.150;11.506;2023-12-20T15:42:35;2.30;;;1.40;;
9838;SDS011;4958;48.150;11.506;2023-12-20T15:45:02;2.43;;;1.53;;
9838;SDS011;4958;48.150;11.506;2023-12-20T15:47:31;1.40;;;1.30;;
9838;SDS011;4958;48.150;11.506;2023-12-20T15:49:58;2.80;;;1.50;;
9838;SDS011;4958;48.150;11.506;2023-12-20T15:52:53;1.77;;;1.37;;
9838;SDS011;4958;48.150;11.506;2023-12-20T15:55:21;1.37;;;1.27;;
9838;SDS011;4958;48.150;11.506;2023-12-20T15:57:47;3.27;;;1.50;;
9838;SDS011;4958;48.150;11.506;2023-12-20T16:00:14;1.67;;;1.40;;
9838;SDS011;4958;48.150;11.506;2023-12-20T16:02:41;2.57;;;1.33;;
9838;SDS011;4958;48.150;11.506;2023-12-20T16:05:14;1.90;;;1.43;;
9838;SDS011;4958;48.150;11.506;2023-12-20T16:07:42;2.33;;;1.40;;
9838;SDS011;4958;48.150;11.506;2023-12-20T16:10:09;2.40;;;1.60;;
9838;SDS011;4958;48.150;11.506;2023-12-20T16:12:35;1.70;;;1.40;;
9838;SDS011;4958;48.150;11.506;2023-12-20T16:15:02;2.63;;;1.50;;
9838;SDS011;4958;48.150;11.506;2023-12-20T16:17:41;1.50;;;1.40;;
9838;SDS011;4958;48.150;11.506;2023-12-20T16:20:07;2.27;;;1.40;;
9838;SDS011;4958;48.150;11.506;2023-12-20T16:22:35;2.73;;;1.80;;
9838;SDS011;4958;48.150;11.506;2023-12-20T16:25:04;2.43;;;1.80;;
9838;SDS011;4958;48.150;11.506;2023-12-20T16:34:28;2.20;;;1.70;;
9838;SDS011;4958;48.150;11.506;2023-12-20T16:37:02;2.60;;;1.53;;
9838;SDS011;4958;48.150;11.506;2023-12-20T16:39:29;3.03;;;1.50;;
9838;SDS011;4958;48.150;11.506;2023-12-20T16:41:57;3.20;;;1.80;;
9838;SDS011;4958;48.150;11.506;2023-12-20T16:44:24;1.63;;;1.50;;
9838;SDS011;4958;48.150;11.506;2023-12-20T16:46:50;1.60;;;1.50;;
9838;SDS011;4958;48.150;11.506;2023-12-20T16:49:19;3.17;;;1.77;;
9838;SDS011;4958;48.150;11.506;2023-12-20T16:51:45;2.40;;;1.53;;
9838;SDS011;4958;48.150;11.506;2023-12-20T16:54:13;2.20;;;1.60;;
9838;SDS011;4958;48.150;11.506;2023-12-20T16:56:40;1.97;;;1.50;;
9838;SDS011;4958;48.150;11.506;2023-12-20T16:59:08;2.20;;;1.47;;
9838;SDS011;4958;48.150;11.506;2023-12-20T17:01:34;3.57;;;1.60;;
9838;SDS011;4958;48.150;11.506;2023-12-20T17:04:01;2.07;;;1.50;;
9838;SDS011;4958;48.150;11.506;2023-12-20T17:06:28;1.60;;;1.50;;
9838;SDS011;4958;48.150;11.506;2023-12-20T17:09:10;2.50;;;1.70;;
9838;SDS011;4958;48.150;11.506;2023-12-20T17:11:40;2.60;;;1.80;;
9838;SDS011;4958;48.150;11.506;2023-12-20T17:14:11;2.60;;;1.63;;
9838;SDS011;4958;48.150;11.506;2023-12-20T17:16:38;3.07;;;1.70;;
9838;SDS011;4958;48.150;11.506;2023-12-20T17:19:04;2.17;;;1.50;;
9838;SDS011;4958;48.150;11.506;2023-12-20T17:21:31;2.23;;;1.60;;
9838;SDS011;4958;48.150;11.506;2023-12-20T17:23:57;1.93;;;1.50;;
9838;SDS011;4958;48.150;11.506;2023-12-20T17:26:42;1.97;;;1.63;;
9838;SDS011;4958;48.150;11.506;2023-12-20T17:29:08;2.37;;;1.80;;
9838;SDS011;4958;48.150;11.506;2023-12-20T17:31:36;3.13;;;1.70;;
9838;SDS011;4958;48.150;11.506;2023-12-20T17:34:03;2.57;;;1.40;;
9838;SDS011;4958;48.150;11.506;2023-12-20T17:46:29;1.67;;;1.30;;
9838;SDS011;4958;48.150;11.506;2023-12-20T17:49:17;2.27;;;1.40;;
9838;SDS011;4958;48.150;11.506;2023-12-20T17:51:44;1.93;;;1.40;;
9838;SDS011;4958;48.150;11.506;2023-12-20T17:54:31;1.60;;;1.20;;
9838;SDS011;4958;48.150;11.506;2023-12-20T17:57:33;1.37;;;1.27;;
9838;SDS011;4958;48.150;11.506;2023-12-20T18:03:15;2.73;;;1.50;;